Time;durP1;ratioP1;P1;durP2;ratioP2;P2;SDS_P1;SDS_P2;PMS_P1;PMS_P2;Temp;Humidity;BMP_temperature;BMP_pressure;BME280_temperature;BME280_humidity;BME280_pressure;Samples;Min_cycle;Max_cycle;Signal;HPM_P1;HPM_P2
2022/03/19 00:05:54;;;;;;;16.63;7.37;;;5.90;99.90;;;;;;12441024;28;20072;-82
2022/03/19 00:11:55;;;;;;;11.73;7.07;;;5.90;99.90;;;;;;12432548;28;20148;-81
2022/03/19 00:17:57;;;;;;;14.68;7.20;;;5.80;99.90;;;;;;12446831;28;20058;-83
2022/03/19 00:23:59;;;;;;;13.23;7.72;;;5.70;99.90;;;;;;12451159;28;20042;-83
2022/03/19 00:30:01;;;;;;;16.55;7.07;;;5.60;99.90;;;;;;12431564;28;20611;-82
2022/03/19 00:36:03;;;;;;;15.25;6.60;;;5.60;99.90;;;;;;12427593;28;20065;-81
2022/03/19 00:42:05;;;;;;;16.73;6.72;;;5.60;99.90;;;;;;12438036;28;20063;-83
2022/03/19 00:48:06;;;;;;;15.07;6.68;;;5.50;99.90;;;;;;12438364;28;20172;-82
2022/03/19 00:54:10;;;;;;;12.00;6.38;;;5.50;99.90;;;;;;12430571;28;20053;-82
2022/03/19 01:00:15;;;;;;;18.67;6.30;;;5.40;99.90;;;;;;12426032;28;20137;-82
2022/03/19 01:06:16;;;;;;;13.93;6.43;;;5.40;99.90;;;;;;12430490;28;20088;-81
2022/03/19 01:12:18;;;;;;;11.30;5.30;;;5.40;99.90;;;;;;12430272;28;20172;-82
2022/03/19 01:18:20;;;;;;;15.73;5.50;;;5.30;99.90;;;;;;12431165;28;20061;-83
2022/03/19 01:24:22;;;;;;;11.07;4.18;;;5.30;99.90;;;;;;12438895;28;20054;-83
2022/03/19 01:30:24;;;;;;;10.20;4.25;;;5.30;99.90;;;;;;12435007;28;20137;-83
2022/03/19 01:36:28;;;;;;;;;;;5.30;99.90;;;;;;12442327;28;20144;-81
2022/03/19 01:42:35;;;;;;;12.80;3.90;;;5.30;99.90;;;;;;12456492;28;20040;-83
2022/03/19 01:48:37;;;;;;;12.65;3.83;;;5.20;99.90;;;;;;12447701;28;20168;-82
2022/03/19 01:54:44;;;;;;;11.38;3.42;;;5.10;99.90;;;;;;12435675;28;20140;-82
2022/03/19 02:00:46;;;;;;;12.27;3.40;;;5.20;99.90;;;;;;12433050;28;20058;-82
2022/03/19 02:06:48;;;;;;;9.90;3.53;;;5.10;99.90;;;;;;12432786;28;20476;-83
2022/03/19 02:12:55;;;;;;;12.90;4.68;;;4.90;99.90;;;;;;12444597;28;20081;-81
2022/03/19 02:18:58;;;;;;;20.92;5.32;;;4.70;99.90;;;;;;12445242;28;20161;-82
2022/03/19 02:31:20;;;;;;;13.27;4.35;;;4.40;99.90;;;;;;12439135;28;20042;-81
2022/03/19 02:37:23;;;;;;;12.27;4.70;;;4.30;99.90;;;;;;12437382;28;20084;-82
2022/03/19 02:43:24;;;;;;;15.77;4.90;;;4.40;99.90;;;;;;12435118;28;20560;-81
2022/03/19 02:49:27;;;;;;;13.40;5.28;;;4.50;99.90;;;;;;12438934;28;20049;-82
2022/03/19 02:55:35;;;;;;;14.85;4.95;;;4.40;99.90;;;;;;12435341;28;20129;-82
2022/03/19 03:01:37;;;;;;;15.18;5.13;;;4.40;99.90;;;;;;12436322;28;20136;-80
2022/03/19 03:07:39;;;;;;;11.65;5.38;;;4.30;99.90;;;;;;12440905;28;20140;-81
2022/03/19 03:13:41;;;;;;;14.85;5.00;;;4.20;99.90;;;;;;12444629;28;20132;-82
2022/03/19 03:19:46;;;;;;;14.00;5.38;;;4.10;99.90;;;;;;12446182;28;20099;-81
2022/03/19 03:25:48;;;;;;;18.88;5.90;;;4.00;99.90;;;;;;12436439;28;20107;-83
2022/03/19 03:31:49;;;;;;;15.75;5.22;;;3.90;99.90;;;;;;12435750;28;20139;-82
2022/03/19 03:37:52;;;;;;;15.95;5.65;;;3.90;99.90;;;;;;12436727;28;20076;-81
2022/03/19 03:43:54;;;;;;;16.52;5.15;;;3.80;99.90;;;;;;12434592;28;20050;-81
2022/03/19 03:49:56;;;;;;;13.18;4.97;;;3.80;99.90;;;;;;12430817;28;20049;-82
2022/03/19 03:55:58;;;;;;;18.35;5.22;;;3.70;99.90;;;;;;12435247;28;20141;-81
2022/03/19 04:02:01;;;;;;;14.70;5.78;;;3.80;99.90;;;;;;12432449;28;20114;-83
2022/03/19 04:08:03;;;;;;;16.38;6.15;;;3.80;99.90;;;;;;12442288;28;20037;-81
2022/03/19 04:14:05;;;;;;;17.70;6.47;;;3.90;99.90;;;;;;12435707;28;20057;-82
2022/03/19 04:20:07;;;;;;;18.35;5.78;;;4.00;99.90;;;;;;12435462;28;20057;-83
2022/03/19 04:26:09;;;;;;;17.92;6.70;;;4.00;99.90;;;;;;12434825;28;20133;-82
2022/03/19 04:32:11;;;;;;;17.15;6.20;;;4.00;99.90;;;;;;12441318;28;20049;-82
2022/03/19 04:38:19;;;;;;;14.05;6.15;;;3.80;99.90;;;;;;12426552;28;20379;-83
2022/03/19 04:44:20;;;;;;;17.00;7.15;;;3.70;99.90;;;;;;12432103;28;20166;-82
2022/03/19 04:50:22;;;;;;;20.75;7.03;;;3.60;99.90;;;;;;12437004;28;20050;-81
2022/03/19 04:56:28;;;;;;;15.73;6.82;;;3.50;99.90;;;;;;12441352;28;20132;-83
2022/03/19 05:02:31;;;;;;;22.80;7.22;;;3.40;99.90;;;;;;12458069;28;20746;-81
2022/03/19 05:08:33;;;;;;;21.83;6.68;;;3.30;99.90;;;;;;12442591;28;20604;-83
2022/03/19 05:14:34;;;;;;;19.80;6.82;;;3.20;99.90;;;;;;12435974;28;20521;-81
2022/03/19 05:20:36;;;;;;;23.23;6.97;;;3.20;99.90;;;;;;12440079;28;20153;-82
2022/03/19 05:26:38;;;;;;;21.10;7.10;;;3.10;99.90;;;;;;12442366;28;20436;-83
2022/03/19 05:32:41;;;;;;;15.18;6.55;;;3.00;99.90;;;;;;12436152;28;20720;-82
2022/03/19 05:38:43;;;;;;;15.95;6.97;;;3.00;99.90;;;;;;12434258;28;20065;-81
2022/03/19 05:44:45;;;;;;;17.00;6.95;;;2.90;99.90;;;;;;12440237;28;20099;-82
2022/03/19 05:50:47;;;;;;;20.10;7.75;;;2.90;99.90;;;;;;12437005;28;20096;-82
2022/03/19 05:56:49;;;;;;;21.85;7.70;;;2.80;99.90;;;;;;12443721;28;20049;-82
2022/03/19 06:02:51;;;;;;;24.50;7.78;;;2.80;99.90;;;;;;12439077;28;20053;-83
2022/03/19 06:08:53;;;;;;;20.00;7.85;;;2.80;99.90;;;;;;12441803;28;20041;-82
2022/03/19 06:14:55;;;;;;;22.88;7.55;;;3.00;99.90;;;;;;12444008;28;20049;-83
2022/03/19 06:20:57;;;;;;;20.90;7.40;;;3.20;99.90;;;;;;12444443;28;20049;-82
2022/03/19 06:26:59;;;;;;;19.60;7.20;;;3.10;99.90;;;;;;12462746;28;20145;-83
2022/03/19 06:33:00;;;;;;;18.65;6.60;;;3.30;99.90;;;;;;12444632;28;20080;-83
2022/03/19 06:39:04;;;;;;;18.95;7.45;;;3.70;99.90;;;;;;12441920;28;20049;-82
2022/03/19 06:45:06;;;;;;;21.95;7.28;;;3.60;99.90;;;;;;12434468;28;20049;-82
2022/03/19 06:51:08;;;;;;;18.67;6.07;;;3.70;99.90;;;;;;12445187;28;20132;-82
2022/03/19 06:57:10;;;;;;;26.50;7.07;;;4.00;99.90;;;;;;12452046;28;20049;-82
2022/03/19 07:03:12;;;;;;;15.60;6.07;;;3.90;99.90;;;;;;12434458;28;20608;-82
2022/03/19 07:09:14;;;;;;;12.98;5.97;;;4.10;99.90;;;;;;12435184;28;20169;-82
2022/03/19 07:15:19;;;;;;;18.00;6.45;;;4.30;99.90;;;;;;12435305;28;20056;-82
2022/03/19 07:21:22;;;;;;;14.82;6.90;;;4.30;99.90;;;;;;12430816;28;20072;-82
2022/03/19 07:27:24;;;;;;;12.93;5.60;;;4.60;99.90;;;;;;12423970;28;20081;-83
2022/03/19 07:33:29;;;;;;;18.50;6.38;;;4.80;99.90;;;;;;12396379;28;20624;-83
2022/03/19 07:39:31;;;;;;;16.85;5.70;;;4.90;99.90;;;;;;12395364;28;20065;-84
2022/03/19 07:45:34;;;;;;;17.48;5.68;;;5.20;99.90;;;;;;12394582;28;20041;-82
2022/03/19 07:51:36;;;;;;;20.02;5.95;;;5.40;99.90;;;;;;12416364;28;20100;-82
2022/03/19 07:57:38;;;;;;;19.95;5.47;;;5.70;99.90;;;;;;12434348;28;20056;-84
2022/03/19 08:03:40;;;;;;;12.85;5.38;;;6.10;99.90;;;;;;12437453;28;20049;-82
2022/03/19 08:09:42;;;;;;;19.40;5.20;;;6.30;99.90;;;;;;12463997;28;20053;-83
2022/03/19 08:15:44;;;;;;;15.43;4.95;;;6.60;99.90;;;;;;12435920;28;20064;-83
2022/03/19 08:21:46;;;;;;;18.85;5.40;;;6.90;99.90;;;;;;12431993;28;20046;-84
2022/03/19 08:27:53;;;;;;;16.55;4.20;;;7.00;99.90;;;;;;12434670;28;20042;-82
2022/03/19 08:33:56;;;;;;;17.08;5.75;;;7.20;99.90;;;;;;12433447;28;20064;-83
2022/03/19 08:40:16;;;;;;;14.43;4.20;;;7.40;99.90;;;;;;12439032;28;20497;-83
2022/03/19 08:46:19;;;;;;;17.65;4.50;;;7.60;99.90;;;;;;12444682;28;21883;-84
2022/03/19 08:52:21;;;;;;;13.45;4.18;;;7.70;99.90;;;;;;12421137;28;20038;-82
2022/03/19 08:58:23;;;;;;;16.00;4.53;;;7.90;99.90;;;;;;12423827;28;20050;-82
2022/03/19 09:04:26;;;;;;;12.43;3.95;;;8.00;99.90;;;;;;12428340;28;20046;-83
2022/03/19 09:10:28;;;;;;;14.82;4.40;;;8.20;99.90;;;;;;12427462;28;20100;-82
2022/03/19 09:16:31;;;;;;;12.70;4.38;;;8.30;99.90;;;;;;12433629;28;20084;-83
2022/03/19 09:22:33;;;;;;;18.33;4.22;;;8.40;99.90;;;;;;12445544;28;20050;-83
2022/03/19 09:28:35;;;;;;;13.60;4.53;;;8.50;99.90;;;;;;12435954;28;20413;-84
2022/03/19 09:34:37;;;;;;;12.85;3.53;;;8.80;99.90;;;;;;12422395;28;20058;-82
2022/03/19 09:40:39;;;;;;;14.45;4.28;;;9.30;99.90;;;;;;12432517;28;20049;-82
2022/03/19 09:46:41;;;;;;;11.45;3.90;;;9.30;99.90;;;;;;12436968;28;20550;-82
2022/03/19 09:52:44;;;;;;;16.90;4.32;;;9.20;99.90;;;;;;12441182;28;20521;-83
2022/03/19 09:58:48;;;;;;;10.18;3.10;;;9.20;99.90;;;;;;12442221;28;20053;-84
2022/03/19 10:04:54;;;;;;;10.57;2.77;;;9.60;99.90;;;;;;12439831;28;20485;-84
2022/03/19 10:10:56;;;;;;;9.10;2.85;;;9.20;99.90;;;;;;12436265;28;20128;-83
2022/03/19 10:16:59;;;;;;;9.93;2.75;;;9.30;99.90;;;;;;12447803;28;20421;-82
2022/03/19 10:23:01;;;;;;;8.77;2.60;;;9.80;99.90;;;;;;12438710;28;20096;-83
2022/03/19 10:29:07;;;;;;;7.80;2.72;;;9.70;99.90;;;;;;12440076;28;20064;-82
2022/03/19 10:35:41;;;;;;;9.07;2.58;;;9.40;99.90;;;;;;12438459;28;20148;-83
2022/03/19 10:41:44;;;;;;;7.65;2.40;;;9.70;99.90;;;;;;12434107;28;20107;-84
2022/03/19 10:47:47;;;;;;;7.15;2.53;;;9.90;99.90;;;;;;12453208;28;20144;-83
2022/03/19 10:53:50;;;;;;;11.50;2.90;;;10.00;99.90;;;;;;12438241;28;20466;-85
2022/03/19 10:59:52;;;;;;;5.88;2.17;;;10.10;99.90;;;;;;12436964;28;20140;-83
2022/03/19 11:06:06;;;;;;;6.38;2.00;;;10.50;99.90;;;;;;12434051;28;20048;-85
2022/03/19 11:12:11;;;;;;;5.07;2.27;;;10.50;99.90;;;;;;12412488;28;20045;-85
2022/03/19 11:18:13;;;;;;;6.50;2.40;;;10.60;99.90;;;;;;12433111;28;20402;-85
2022/03/19 11:24:24;;;;;;;5.30;1.30;;;10.90;99.90;;;;;;12424419;28;20111;-85
2022/03/19 11:30:32;;;;;;;4.22;1.20;;;10.80;99.90;;;;;;12441179;28;20042;-85
2022/03/19 11:36:54;;;;;;;5.13;1.20;;;10.80;99.90;;;;;;12438797;28;20069;-82
2022/03/19 11:43:05;;;;;;;5.80;1.50;;;10.30;99.90;;;;;;12446414;28;20148;-84
2022/03/19 11:49:07;;;;;;;3.67;1.17;;;10.30;99.90;;;;;;12445883;28;20132;-84
2022/03/19 11:55:10;;;;;;;7.03;1.40;;;10.70;99.90;;;;;;12432927;28;20498;-82
2022/03/19 12:01:13;;;;;;;5.88;1.23;;;10.70;99.90;;;;;;12439370;28;20619;-84
2022/03/19 12:07:36;;;;;;;4.43;1.30;;;10.80;99.90;;;;;;12429991;28;20053;-84
2022/03/19 12:13:42;;;;;;;5.57;1.27;;;11.30;99.90;;;;;;12431054;28;20050;-82
2022/03/19 12:19:59;;;;;;;6.18;1.38;;;11.60;99.90;;;;;;12434199;28;20144;-82
2022/03/19 12:26:04;;;;;;;7.53;1.42;;;11.40;99.90;;;;;;12464529;28;20100;-82
2022/03/19 12:32:06;;;;;;;5.03;1.27;;;11.40;99.90;;;;;;12443981;28;20046;-82
2022/03/19 12:38:08;;;;;;;5.75;1.27;;;11.30;99.90;;;;;;12436210;28;20508;-84
2022/03/19 12:44:25;;;;;;;4.68;1.20;;;11.60;99.90;;;;;;12431632;28;20059;-84
2022/03/19 12:50:27;;;;;;;5.15;1.40;;;11.50;99.90;;;;;;12432291;28;20098;-84
2022/03/19 12:56:29;;;;;;;4.85;1.58;;;12.20;99.90;;;;;;12431883;28;20050;-82
2022/03/19 13:02:31;;;;;;;45.58;3.50;;;12.00;99.90;;;;;;12432341;28;20141;-84
2022/03/19 13:08:47;;;;;;;2.92;0.93;;;11.40;99.90;;;;;;12426186;28;20049;-83
2022/03/19 13:14:52;;;;;;;4.13;1.10;;;11.20;99.90;;;;;;12431468;28;20476;-83
2022/03/19 13:21:05;;;;;;;4.93;1.35;;;11.20;99.90;;;;;;12429740;28;20072;-82
2022/03/19 13:27:07;;;;;;;5.97;0.93;;;11.00;99.90;;;;;;12457856;28;20054;-82
2022/03/19 13:33:15;;;;;;;6.35;1.60;;;10.80;99.90;;;;;;12441183;28;20052;-83
2022/03/19 13:39:30;;;;;;;8.30;2.00;;;10.70;99.90;;;;;;12436282;28;20931;-82
2022/03/19 13:45:32;;;;;;;6.82;1.00;;;10.50;99.90;;;;;;12439828;28;20096;-83
2022/03/19 13:51:45;;;;;;;5.47;1.08;;;9.80;99.90;;;;;;12457619;28;20132;-83
2022/03/19 13:57:49;;;;;;;3.88;1.02;;;10.40;99.90;;;;;;12470538;28;20131;-83
2022/03/19 14:03:57;;;;;;;3.88;1.00;;;10.60;99.90;;;;;;12434592;28;20069;-84
2022/03/19 14:10:00;;;;;;;3.85;1.00;;;10.70;99.90;;;;;;12435524;28;20054;-83
2022/03/19 14:16:13;;;;;;;7.13;1.45;;;10.60;99.90;;;;;;12436815;28;20042;-81
2022/03/19 14:22:16;;;;;;;3.60;1.15;;;10.80;99.90;;;;;;12424896;28;20406;-82
2022/03/19 14:28:20;;;;;;;3.20;1.10;;;10.90;99.90;;;;;;12441151;28;20049;-82
2022/03/19 14:34:22;;;;;;;4.47;1.15;;;10.80;99.90;;;;;;12436552;28;20570;-83
2022/03/19 14:40:24;;;;;;;3.58;0.73;;;10.40;99.90;;;;;;12443678;28;20080;-82
2022/03/19 14:46:26;;;;;;;3.92;1.10;;;10.60;99.90;;;;;;12436758;28;20472;-81
2022/03/19 14:52:28;;;;;;;4.50;1.20;;;10.90;99.90;;;;;;12433056;28;20049;-81
2022/03/19 14:58:30;;;;;;;4.60;0.95;;;10.80;99.90;;;;;;12433538;28;20056;-84
2022/03/19 15:04:32;;;;;;;3.22;0.93;;;11.00;99.90;;;;;;12438487;28;20048;-82
2022/03/19 15:10:49;;;;;;;3.28;0.80;;;10.50;99.90;;;;;;12434840;28;20052;-83
2022/03/19 15:16:51;;;;;;;3.00;0.80;;;10.20;99.90;;;;;;12443135;28;20102;-82
2022/03/19 15:22:53;;;;;;;4.05;0.70;;;9.90;99.90;;;;;;12435784;28;20099;-84
2022/03/19 15:28:55;;;;;;;1.67;0.60;;;9.80;99.90;;;;;;12440518;28;20137;-82
2022/03/19 15:35:01;;;;;;;3.90;0.85;;;10.00;99.90;;;;;;12427392;28;20083;-82
2022/03/19 15:41:05;;;;;;;4.03;1.15;;;10.30;99.90;;;;;;12428613;28;20042;-81
2022/03/19 15:47:07;;;;;;;5.43;0.90;;;10.40;99.90;;;;;;12430229;28;20060;-83
2022/03/19 15:53:09;;;;;;;4.45;1.20;;;10.40;99.90;;;;;;12433440;28;20099;-81
2022/03/19 15:59:11;;;;;;;5.07;0.93;;;10.50;99.90;;;;;;12431499;28;20567;-83
2022/03/19 16:05:13;;;;;;;2.92;0.70;;;10.50;99.90;;;;;;12424869;28;20075;-83
2022/03/19 16:11:16;;;;;;;2.58;0.60;;;10.40;99.90;;;;;;12415570;28;20046;-83
2022/03/19 16:17:19;;;;;;;3.92;0.90;;;10.30;99.90;;;;;;12432561;28;20053;-82
2022/03/19 16:23:25;;;;;;;3.10;1.00;;;10.40;99.90;;;;;;12430544;28;20144;-83
2022/03/19 16:29:27;;;;;;;6.07;1.17;;;10.20;99.90;;;;;;12429584;28;20080;-83
2022/03/19 16:35:31;;;;;;;4.55;1.08;;;9.90;99.90;;;;;;12429463;28;20137;-81
2022/03/19 16:41:33;;;;;;;2.43;0.80;;;9.70;99.90;;;;;;12432194;28;20052;-82
2022/03/19 16:47:35;;;;;;;5.68;1.05;;;9.60;99.90;;;;;;12434472;28;20103;-83
2022/03/19 16:53:37;;;;;;;4.00;0.90;;;9.50;99.90;;;;;;12429274;28;20156;-83
2022/03/19 16:59:39;;;;;;;2.10;0.88;;;9.40;99.90;;;;;;12407181;28;20089;-83
2022/03/19 17:05:41;;;;;;;5.80;1.08;;;9.20;99.90;;;;;;12444907;28;20061;-81
2022/03/19 17:11:43;;;;;;;5.93;1.08;;;9.20;99.90;;;;;;12431147;28;20050;-82
2022/03/19 17:17:45;;;;;;;3.72;1.08;;;9.10;99.90;;;;;;12425859;28;20080;-81
2022/03/19 17:23:47;;;;;;;4.15;1.17;;;9.00;99.90;;;;;;12425283;28;20153;-83
2022/03/19 17:29:49;;;;;;;4.60;1.45;;;9.00;99.90;;;;;;12424741;28;20894;-83
2022/03/19 17:35:51;;;;;;;4.50;1.40;;;9.00;99.90;;;;;;12404857;28;20046;-82
2022/03/19 17:41:54;;;;;;;3.70;1.10;;;8.90;99.90;;;;;;12427680;28;20057;-83
2022/03/19 17:47:55;;;;;;;5.10;1.52;;;8.90;99.90;;;;;;12431012;28;20048;-83
2022/03/19 17:54:02;;;;;;;5.38;1.20;;;8.80;99.90;;;;;;12434968;28;20049;-83
2022/03/19 18:00:06;;;;;;;4.28;1.40;;;8.70;99.90;;;;;;12426790;28;20069;-80
2022/03/19 18:06:08;;;;;;;6.90;1.15;;;8.50;99.90;;;;;;12432784;28;20129;-82
2022/03/19 18:12:10;;;;;;;5.13;1.58;;;8.20;99.90;;;;;;12437530;28;20114;-81
2022/03/19 18:18:15;;;;;;;4.43;1.38;;;8.20;99.90;;;;;;12438733;28;20446;-80
2022/03/19 18:24:17;;;;;;;4.80;1.20;;;8.20;99.90;;;;;;12457212;28;20599;-80
2022/03/19 18:30:23;;;;;;;8.07;1.50;;;8.10;99.90;;;;;;12435305;28;20057;-81
2022/03/19 18:36:26;;;;;;;6.03;1.40;;;8.20;99.90;;;;;;12433380;28;20046;-82
2022/03/19 18:42:34;;;;;;;4.32;1.38;;;8.10;99.90;;;;;;12432552;28;20140;-80
2022/03/19 18:48:36;;;;;;;6.15;1.85;;;8.00;99.90;;;;;;12434237;28;20056;-81
2022/03/19 18:54:39;;;;;;;7.63;1.50;;;8.00;99.90;;;;;;12431614;28;20139;-82
2022/03/19 19:00:41;;;;;;;7.10;1.60;;;8.00;99.90;;;;;;12430220;28;20099;-81
2022/03/19 19:06:45;;;;;;;5.70;1.65;;;7.90;99.90;;;;;;12435887;28;20053;-81
2022/03/19 19:12:49;;;;;;;7.70;1.48;;;7.80;99.90;;;;;;12432840;28;20049;-82
2022/03/19 19:18:51;;;;;;;4.95;1.63;;;7.70;99.90;;;;;;12434710;28;20387;-80
2022/03/19 19:24:53;;;;;;;6.75;1.85;;;7.50;99.90;;;;;;12441731;28;20455;-82
2022/03/19 19:30:56;;;;;;;4.47;1.55;;;7.20;99.90;;;;;;12432583;28;20053;-82
2022/03/19 19:36:58;;;;;;;5.82;2.03;;;7.10;99.90;;;;;;12433824;28;20128;-80
2022/03/19 19:43:00;;;;;;;6.18;2.40;;;7.10;99.90;;;;;;12442237;28;20107;-82
2022/03/19 19:49:01;;;;;;;10.18;4.13;;;7.40;99.90;;;;;;12430125;28;20053;-82
2022/03/19 19:55:03;;;;;;;9.75;4.80;;;7.60;99.90;;;;;;12435157;28;20491;-82
2022/03/19 20:01:07;;;;;;;14.63;7.10;;;7.70;99.90;;;;;;12433849;28;20049;-81
2022/03/19 20:13:29;;;;;;;17.42;10.45;;;7.50;99.90;;;;;;12429655;28;20058;-81
2022/03/19 20:19:32;;;;;;;18.48;11.20;;;7.50;99.90;;;;;;12428961;28;20049;-80
2022/03/19 20:25:34;;;;;;;19.35;11.35;;;7.40;99.90;;;;;;12430295;28;20067;-81
2022/03/19 20:31:36;;;;;;;18.67;11.77;;;7.30;99.90;;;;;;12411438;28;20072;-80
2022/03/19 20:37:41;;;;;;;21.80;12.48;;;7.20;99.90;;;;;;12431788;28;21177;-81
2022/03/19 20:43:42;;;;;;;19.15;12.32;;;7.10;99.90;;;;;;12433360;28;20081;-80
2022/03/19 20:56:13;;;;;;;19.77;13.30;;;6.90;99.90;;;;;;12442579;28;20076;-81
2022/03/19 21:02:16;;;;;;;24.10;14.20;;;6.80;99.90;;;;;;12428948;28;20056;-81
2022/03/19 21:08:18;;;;;;;22.63;13.98;;;6.80;99.90;;;;;;12427145;28;20163;-80
2022/03/19 21:14:19;;;;;;;22.90;13.93;;;6.70;99.90;;;;;;12426607;28;20049;-81
2022/03/19 21:20:22;;;;;;;25.65;15.23;;;6.70;99.90;;;;;;12437047;28;20518;-81
2022/03/19 21:26:26;;;;;;;22.75;14.43;;;6.70;99.90;;;;;;12425599;28;20107;-81
2022/03/19 21:32:28;;;;;;;26.52;14.13;;;6.60;99.90;;;;;;12430148;28;20525;-80
2022/03/19 21:38:30;;;;;;;25.77;14.77;;;6.50;99.90;;;;;;12432284;28;20058;-80
2022/03/19 21:44:31;;;;;;;26.30;15.18;;;6.40;99.90;;;;;;12438984;28;20053;-81
2022/03/19 21:50:34;;;;;;;25.52;15.77;;;6.30;99.90;;;;;;12431759;28;20041;-81
2022/03/19 21:56:36;;;;;;;25.05;14.82;;;6.20;99.90;;;;;;12439230;28;20128;-80
2022/03/19 22:02:39;;;;;;;24.17;15.55;;;6.10;99.90;;;;;;12434439;28;20398;-81
2022/03/19 22:08:42;;;;;;;25.05;15.15;;;6.10;99.90;;;;;;12437801;28;20049;-80
2022/03/19 22:14:45;;;;;;;25.70;13.90;;;6.10;99.90;;;;;;12434977;28;20124;-80
2022/03/19 22:20:48;;;;;;;23.95;15.13;;;5.90;99.90;;;;;;12435325;28;20109;-80
2022/03/19 22:26:50;;;;;;;28.45;15.43;;;5.80;99.90;;;;;;12433839;28;20486;-79
2022/03/19 22:32:52;;;;;;;25.98;15.68;;;5.70;99.90;;;;;;12461684;28;20139;-80
2022/03/19 22:38:54;;;;;;;26.02;15.75;;;5.50;99.90;;;;;;12444646;28;20543;-81
2022/03/19 22:44:57;;;;;;;20.98;14.48;;;5.50;99.90;;;;;;12433528;28;20049;-81
2022/03/19 22:50:58;;;;;;;25.88;15.07;;;5.50;99.90;;;;;;12433440;28;20049;-80
2022/03/19 22:57:00;;;;;;;24.58;15.43;;;5.50;99.90;;;;;;12433743;28;20041;-80
2022/03/19 23:03:02;;;;;;;24.38;15.93;;;5.50;99.90;;;;;;12432496;28;20106;-80
2022/03/19 23:09:05;;;;;;;23.55;15.38;;;5.40;99.90;;;;;;12433682;28;20103;-80
2022/03/19 23:15:08;;;;;;;25.15;15.35;;;5.20;99.90;;;;;;12428667;28;20449;-81
2022/03/19 23:21:10;;;;;;;26.77;15.52;;;4.90;99.90;;;;;;12435618;28;20053;-80
2022/03/19 23:27:12;;;;;;;28.60;15.45;;;4.80;99.90;;;;;;12430058;28;20560;-80
2022/03/19 23:33:14;;;;;;;26.42;14.88;;;4.70;99.90;;;;;;12427742;28;20440;-80
2022/03/19 23:39:18;;;;;;;22.92;14.38;;;4.50;99.90;;;;;;12438438;28;20066;-81
2022/03/19 23:45:21;;;;;;;22.25;13.55;;;4.50;99.90;;;;;;12444668;28;20176;-81
2022/03/19 23:51:23;;;;;;;22.63;12.30;;;4.40;99.90;;;;;;12434906;28;20488;-80
2022/03/19 23:57:27;;;;;;;21.73;13.27;;;4.50;99.90;;;;;;12430555;28;20460;-80
